sensor_id;sensor_type;location;lat;lon;timestamp;pressure;altitude;pressure_sealevel;temperature;humidity
78354;BME280;67629;46.040;18.232;2024-03-22T00:00:29;100033.19;;;12.31;53.87
78354;BME280;67629;46.040;18.232;2024-03-22T00:01:00;100020.34;;;12.32;53.55
78354;BME280;67629;46.040;18.232;2024-03-22T00:01:30;100021.44;;;12.31;53.67
78354;BME280;67629;46.040;18.232;2024-03-22T00:02:01;100020.34;;;12.32;53.14
78354;BME280;67629;46.040;18.232;2024-03-22T00:02:31;100024.75;;;12.33;52.92
78354;BME280;67629;46.040;18.232;2024-03-22T00:03:03;100019.50;;;12.31;52.93
78354;BME280;67629;46.040;18.232;2024-03-22T00:03:33;100025.81;;;12.32;53.46
78354;BME280;67629;46.040;18.232;2024-03-22T00:04:04;100020.94;;;12.34;53.57
78354;BME280;67629;46.040;18.232;2024-03-22T00:04:37;100024.75;;;12.33;53.56
78354;BME280;67629;46.040;18.232;2024-03-22T00:05:08;100012.72;;;12.34;53.44
78354;BME280;67629;46.040;18.232;2024-03-22T00:05:39;100021.75;;;12.34;52.92
78354;BME280;67629;46.040;18.232;2024-03-22T00:06:09;100017.38;;;12.33;52.74
78354;BME280;67629;46.040;18.232;2024-03-22T00:06:45;100024.25;;;12.36;52.58
78354;BME280;67629;46.040;18.232;2024-03-22T00:07:50;100018.78;;;12.36;52.38
78354;BME280;67629;46.040;18.232;2024-03-22T00:08:21;100020.41;;;12.37;52.69
78354;BME280;67629;46.040;18.232;2024-03-22T00:08:51;100019.84;;;12.35;53.07
78354;BME280;67629;46.040;18.232;2024-03-22T00:09:22;100024.16;;;12.31;52.55
78354;BME280;67629;46.040;18.232;2024-03-22T00:09:52;100016.75;;;12.31;52.67
78354;BME280;67629;46.040;18.232;2024-03-22T00:10:23;100011.63;;;12.35;52.83
78354;BME280;67629;46.040;18.232;2024-03-22T00:10:53;100021.03;;;12.39;52.58
78354;BME280;67629;46.040;18.232;2024-03-22T00:11:24;100023.50;;;12.40;52.82
78354;BME280;67629;46.040;18.232;2024-03-22T00:11:55;100013.28;;;12.36;53.77
78354;BME280;67629;46.040;18.232;2024-03-22T00:12:25;100020.34;;;12.32;53.97
78354;BME280;67629;46.040;18.232;2024-03-22T00:12:56;100017.59;;;12.32;53.13
78354;BME280;67629;46.040;18.232;2024-03-22T00:13:27;100006.72;;;12.37;52.81
78354;BME280;67629;46.040;18.232;2024-03-22T00:13:57;100016.59;;;12.38;52.54
78354;BME280;67629;46.040;18.232;2024-03-22T00:14:28;100011.72;;;12.40;52.91
78354;BME280;67629;46.040;18.232;2024-03-22T00:14:59;100016.38;;;12.39;53.12
78354;BME280;67629;46.040;18.232;2024-03-22T00:15:29;100010.28;;;12.37;53.30
78354;BME280;67629;46.040;18.232;2024-03-22T00:16:00;100010.06;;;12.39;53.36
78354;BME280;67629;46.040;18.232;2024-03-22T00:16:30;100016.38;;;12.39;52.91
78354;BME280;67629;46.040;18.232;2024-03-22T00:17:01;100012.19;;;12.37;52.96
78354;BME280;67629;46.040;18.232;2024-03-22T00:18:05;100013.28;;;12.36;53.49
78354;BME280;67629;46.040;18.232;2024-03-22T00:18:36;100017.69;;;12.37;52.85
78354;BME280;67629;46.040;18.232;2024-03-22T00:19:07;100010.28;;;12.37;52.87
78354;BME280;67629;46.040;18.232;2024-03-22T00:19:37;100014.34;;;12.35;52.81
78354;BME280;67629;46.040;18.232;2024-03-22T00:20:08;100018.50;;;12.37;53.39
78354;BME280;67629;46.040;18.232;2024-03-22T00:20:39;100010.28;;;12.37;53.01
78354;BME280;67629;46.040;18.232;2024-03-22T00:21:09;100003.97;;;12.37;53.02
78354;BME280;67629;46.040;18.232;2024-03-22T00:21:40;100013.63;;;12.39;52.68
78354;BME280;67629;46.040;18.232;2024-03-22T00:22:11;100010.06;;;12.39;53.15
78354;BME280;67629;46.040;18.232;2024-03-22T00:22:41;100010.56;;;12.36;53.80
78354;BME280;67629;46.040;18.232;2024-03-22T00:23:12;100011.63;;;12.35;53.63
78354;BME280;67629;46.040;18.232;2024-03-22T00:23:43;100008.53;;;12.31;53.47
78354;BME280;67629;46.040;18.232;2024-03-22T00:24:14;100010.69;;;12.29;54.00
78354;BME280;67629;46.040;18.232;2024-03-22T00:24:45;100011.44;;;12.25;54.34
78354;BME280;67629;46.040;18.232;2024-03-22T00:25:15;100009.19;;;12.22;54.65
78354;BME280;67629;46.040;18.232;2024-03-22T00:25:46;100008.59;;;12.20;54.55
78354;BME280;67629;46.040;18.232;2024-03-22T00:26:17;100006.94;;;12.19;54.27
78354;BME280;67629;46.040;18.232;2024-03-22T00:26:47;100008.84;;;12.18;54.12
78354;BME280;67629;46.040;18.232;2024-03-22T00:27:51;100010.19;;;12.16;54.00
78354;BME280;67629;46.040;18.232;2024-03-22T00:28:22;100006.59;;;12.15;54.15
78354;BME280;67629;46.040;18.232;2024-03-22T00:28:53;100010.19;;;12.16;54.32
78354;BME280;67629;46.040;18.232;2024-03-22T00:29:23;100005.41;;;12.11;54.61
78354;BME280;67629;46.040;18.232;2024-03-22T00:29:54;100002.66;;;12.11;54.52
78354;BME280;67629;46.040;18.232;2024-03-22T00:30:24;99998.53;;;12.09;56.32
78354;BME280;67629;46.040;18.232;2024-03-22T00:30:55;100006.41;;;12.05;57.13
78354;BME280;67629;46.040;18.232;2024-03-22T00:31:26;100002.00;;;12.04;57.56
78354;BME280;67629;46.040;18.232;2024-03-22T00:31:56;99998.34;;;11.98;56.89
78354;BME280;67629;46.040;18.232;2024-03-22T00:32:27;99998.56;;;11.97;57.26
78354;BME280;67629;46.040;18.232;2024-03-22T00:32:57;99997.41;;;11.93;56.59
78354;BME280;67629;46.040;18.232;2024-03-22T00:33:28;100000.38;;;11.91;56.75
78354;BME280;67629;46.040;18.232;2024-03-22T00:33:59;100002.78;;;11.88;57.03
78354;BME280;67629;46.040;18.232;2024-03-22T00:34:29;99996.72;;;11.86;56.69
78354;BME280;67629;46.040;18.232;2024-03-22T00:35:00;100002.91;;;11.81;56.21
78354;BME280;67629;46.040;18.232;2024-03-22T00:35:30;100003.63;;;11.77;56.90
78354;BME280;67629;46.040;18.232;2024-03-22T00:36:01;100010.09;;;11.71;57.96
78354;BME280;67629;46.040;18.232;2024-03-22T00:36:32;100005.44;;;11.71;57.04
78354;BME280;67629;46.040;18.232;2024-03-22T00:37:03;100001.63;;;11.72;56.32
78354;BME280;67629;46.040;18.232;2024-03-22T00:38:07;100014.00;;;11.63;57.94
78354;BME280;67629;46.040;18.232;2024-03-22T00:38:38;100002.69;;;11.60;58.04
78354;BME280;67629;46.040;18.232;2024-03-22T00:39:09;100010.66;;;11.61;57.08
78354;BME280;67629;46.040;18.232;2024-03-22T00:39:39;100010.19;;;11.64;56.81
78354;BME280;67629;46.040;18.232;2024-03-22T00:40:10;100006.34;;;11.65;56.40
78354;BME280;67629;46.040;18.232;2024-03-22T00:40:41;99999.59;;;11.68;56.56
78354;BME280;67629;46.040;18.232;2024-03-22T00:41:12;100017.31;;;11.65;56.89
78354;BME280;67629;46.040;18.232;2024-03-22T00:41:42;100002.22;;;11.63;56.75
78354;BME280;67629;46.040;18.232;2024-03-22T00:42:13;100008.16;;;11.60;57.54
78354;BME280;67629;46.040;18.232;2024-03-22T00:42:43;100012.22;;;11.57;58.25
78354;BME280;67629;46.040;18.232;2024-03-22T00:43:14;100009.13;;;11.54;57.49
78354;BME280;67629;46.040;18.232;2024-03-22T00:43:45;100014.59;;;11.54;57.33
78354;BME280;67629;46.040;18.232;2024-03-22T00:44:15;100013.53;;;11.55;57.39
78354;BME280;67629;46.040;18.232;2024-03-22T00:44:46;100012.69;;;11.54;58.31
78354;BME280;67629;46.040;18.232;2024-03-22T00:45:16;100015.59;;;11.48;58.56
78354;BME280;67629;46.040;18.232;2024-03-22T00:45:47;100009.38;;;11.52;57.87
78354;BME280;67629;46.040;18.232;2024-03-22T00:46:18;100013.53;;;11.55;57.77
78354;BME280;67629;46.040;18.232;2024-03-22T00:46:49;100019.25;;;11.53;57.70
78354;BME280;67629;46.040;18.232;2024-03-22T00:47:19;100012.47;;;11.56;57.57
78354;BME280;67629;46.040;18.232;2024-03-22T00:47:50;100015.56;;;11.59;57.61
78354;BME280;67629;46.040;18.232;2024-03-22T00:48:20;100013.63;;;11.60;57.65
78354;BME280;67629;46.040;18.232;2024-03-22T00:48:51;100003.53;;;11.60;57.39
78354;BME280;67629;46.040;18.232;2024-03-22T00:49:21;100013.16;;;11.63;57.56
78354;BME280;67629;46.040;18.232;2024-03-22T00:49:52;100013.41;;;11.61;57.62
78354;BME280;67629;46.040;18.232;2024-03-22T00:50:23;100003.03;;;11.63;57.12
78354;BME280;67629;46.040;18.232;2024-03-22T00:50:53;100009.94;;;11.66;57.77
78354;BME280;67629;46.040;18.232;2024-03-22T00:51:26;100005.31;;;11.66;57.55
78354;BME280;67629;46.040;18.232;2024-03-22T00:51:56;100009.94;;;11.66;57.29
78354;BME280;67629;46.040;18.232;2024-03-22T00:52:28;100010.19;;;11.64;57.60
78354;BME280;67629;46.040;18.232;2024-03-22T00:52:58;100013.41;;;11.61;58.30
78354;BME280;67629;46.040;18.232;2024-03-22T00:53:29;100018.63;;;11.63;59.26
78354;BME280;67629;46.040;18.232;2024-03-22T00:54:00;100012.56;;;11.61;59.68
78354;BME280;67629;46.040;18.232;2024-03-22T00:54:46;100016.16;;;11.61;59.68
78354;BME280;67629;46.040;18.232;2024-03-22T00:55:31;100018.88;;;11.61;59.74
78354;BME280;67629;46.040;18.232;2024-03-22T00:56:17;100027.56;;;11.58;60.75
78354;BME280;67629;46.040;18.232;2024-03-22T00:56:48;100023.41;;;11.56;61.43
78354;BME280;67629;46.040;18.232;2024-03-22T00:57:34;100013.53;;;11.55;61.97
78354;BME280;67629;46.040;18.232;2024-03-22T00:58:19;100022.22;;;11.52;62.05
78354;BME280;67629;46.040;18.232;2024-03-22T00:59:05;100013.44;;;11.50;62.23
78354;BME280;67629;46.040;18.232;2024-03-22T00:59:52;100010.09;;;11.48;62.35
78354;BME280;67629;46.040;18.232;2024-03-22T01:00:38;100012.84;;;11.48;62.47
78354;BME280;67629;46.040;18.232;2024-03-22T01:01:26;100015.22;;;11.44;63.31
78354;BME280;67629;46.040;18.232;2024-03-22T01:02:11;100011.53;;;11.38;63.70
78354;BME280;67629;46.040;18.232;2024-03-22T01:02:57;100014.16;;;11.33;64.43
78354;BME280;67629;46.040;18.232;2024-03-22T01:03:43;100008.94;;;11.32;64.24
78354;BME280;67629;46.040;18.232;2024-03-22T01:04:29;100011.56;;;11.27;64.64
78354;BME280;67629;46.040;18.232;2024-03-22T01:05:14;100015.13;;;11.27;64.28
78354;BME280;67629;46.040;18.232;2024-03-22T01:06:00;100014.28;;;11.27;64.30
78354;BME280;67629;46.040;18.232;2024-03-22T01:06:46;100023.53;;;11.26;64.14
78354;BME280;67629;46.040;18.232;2024-03-22T01:07:32;100010.00;;;11.19;64.18
78354;BME280;67629;46.040;18.232;2024-03-22T01:08:18;100014.19;;;11.22;64.26
78354;BME280;67629;46.040;18.232;2024-03-22T01:09:03;100014.19;;;11.22;63.61
78354;BME280;67629;46.040;18.232;2024-03-22T01:09:51;100006.19;;;11.20;63.47
78354;BME280;67629;46.040;18.232;2024-03-22T01:10:37;100012.25;;;11.22;62.79
78354;BME280;67629;46.040;18.232;2024-03-22T01:11:22;100004.66;;;11.24;62.19
78354;BME280;67629;46.040;18.232;2024-03-22T01:12:08;100011.56;;;11.27;62.20
78354;BME280;67629;46.040;18.232;2024-03-22T01:12:54;100009.88;;;11.26;62.14
78354;BME280;67629;46.040;18.232;2024-03-22T01:13:40;100007.16;;;11.26;62.00
78354;BME280;67629;46.040;18.232;2024-03-22T01:14:25;100007.97;;;11.26;62.36
78354;BME280;67629;46.040;18.232;2024-03-22T01:15:11;100013.19;;;11.28;61.77
78354;BME280;67629;46.040;18.232;2024-03-22T01:15:57;100009.03;;;11.25;62.12
78354;BME280;67629;46.040;18.232;2024-03-22T01:16:27;100011.56;;;11.27;62.43
78354;BME280;67629;46.040;18.232;2024-03-22T01:16:58;100006.09;;;11.27;62.17
78354;BME280;67629;46.040;18.232;2024-03-22T01:17:28;100018.66;;;11.28;62.08
78354;BME280;67629;46.040;18.232;2024-03-22T01:17:59;100003.09;;;11.28;61.77
78354;BME280;67629;46.040;18.232;2024-03-22T01:18:30;100008.09;;;11.31;61.13
78354;BME280;67629;46.040;18.232;2024-03-22T01:19:00;100018.31;;;11.36;60.57
78354;BME280;67629;46.040;18.232;2024-03-22T01:20:26;100008.56;;;11.40;60.47
78354;BME280;67629;46.040;18.232;2024-03-22T01:20:57;100014.03;;;11.40;60.19
78354;BME280;67629;46.040;18.232;2024-03-22T01:21:27;100008.06;;;11.43;60.15
78354;BME280;67629;46.040;18.232;2024-03-22T01:21:58;100008.91;;;11.43;59.97
78354;BME280;67629;46.040;18.232;2024-03-22T01:22:28;100008.66;;;11.45;59.89
78354;BME280;67629;46.040;18.232;2024-03-22T01:22:59;100004.88;;;11.46;59.44
78354;BME280;67629;46.040;18.232;2024-03-22T01:23:31;100007.13;;;11.49;59.19
78354;BME280;67629;46.040;18.232;2024-03-22T01:24:01;100007.69;;;11.51;58.93
78354;BME280;67629;46.040;18.232;2024-03-22T01:24:32;100002.84;;;11.53;58.44
78354;BME280;67629;46.040;18.232;2024-03-22T01:25:03;100005.09;;;11.56;58.70
78354;BME280;67629;46.040;18.232;2024-03-22T01:25:34;100004.84;;;11.58;59.04
78354;BME280;67629;46.040;18.232;2024-03-22T01:26:04;99993.91;;;11.58;58.22
78354;BME280;67629;46.040;18.232;2024-03-22T01:26:35;99998.66;;;11.62;58.30
78354;BME280;67629;46.040;18.232;2024-03-22T01:27:06;99999.72;;;11.61;58.10
78354;BME280;67629;46.040;18.232;2024-03-22T01:27:36;100006.63;;;11.64;57.67
78354;BME280;67629;46.040;18.232;2024-03-22T01:28:07;99992.69;;;11.65;57.64
78354;BME280;67629;46.040;18.232;2024-03-22T01:28:37;100005.31;;;11.66;57.37
78354;BME280;67629;46.040;18.232;2024-03-22T01:32:58;99994.63;;;11.76;56.91
78354;BME280;67629;46.040;18.232;2024-03-22T01:33:29;99993.78;;;11.76;56.50
78354;BME280;67629;46.040;18.232;2024-03-22T01:34:00;100000.88;;;11.77;57.56
78354;BME280;67629;46.040;18.232;2024-03-22T01:34:30;99994.84;;;11.75;58.54
78354;BME280;67629;46.040;18.232;2024-03-22T01:35:01;99995.09;;;11.73;58.74
78354;BME280;67629;46.040;18.232;2024-03-22T01:35:31;99989.00;;;11.71;59.03
78354;BME280;67629;46.040;18.232;2024-03-22T01:36:02;99997.84;;;11.73;59.06
78354;BME280;67629;46.040;18.232;2024-03-22T01:36:35;99999.47;;;11.74;58.78
78354;BME280;67629;46.040;18.232;2024-03-22T01:37:06;100000.78;;;11.72;59.31
78354;BME280;67629;46.040;18.232;2024-03-22T01:37:37;100001.63;;;11.72;59.99
78354;BME280;67629;46.040;18.232;2024-03-22T01:38:07;100004.38;;;11.72;60.82
78354;BME280;67629;46.040;18.232;2024-03-22T01:38:38;100001.63;;;11.72;61.00
78354;BME280;67629;46.040;18.232;2024-03-22T01:39:08;99993.78;;;11.76;61.04
78354;BME280;67629;46.040;18.232;2024-03-22T01:39:39;99996.50;;;11.76;61.32
78354;BME280;67629;46.040;18.232;2024-03-22T01:40:10;99997.94;;;11.78;61.31
78354;BME280;67629;46.040;18.232;2024-03-22T01:40:41;100001.50;;;11.79;61.40
78354;BME280;67629;46.040;18.232;2024-03-22T01:41:11;100001.72;;;11.77;61.59
78354;BME280;67629;46.040;18.232;2024-03-22T01:41:43;99992.47;;;11.78;61.07
78354;BME280;67629;46.040;18.232;2024-03-22T01:47:47;100000.31;;;11.75;61.71
78354;BME280;67629;46.040;18.232;2024-03-22T01:48:18;100002.00;;;11.76;62.13
78354;BME280;67629;46.040;18.232;2024-03-22T01:48:48;100002.22;;;11.74;61.69
78354;BME280;67629;46.040;18.232;2024-03-22T01:49:19;100007.69;;;11.74;61.90
78354;BME280;67629;46.040;18.232;2024-03-22T01:49:51;100002.22;;;11.74;62.40
78354;BME280;67629;46.040;18.232;2024-03-22T01:50:23;100006.53;;;11.70;62.74
78354;BME280;67629;46.040;18.232;2024-03-22T01:50:54;100006.34;;;11.65;63.13
78354;BME280;67629;46.040;18.232;2024-03-22T01:51:25;100009.72;;;11.67;62.91
78354;BME280;67629;46.040;18.232;2024-03-22T01:51:55;100015.19;;;11.67;63.10
78354;BME280;67629;46.040;18.232;2024-03-22T01:52:26;100006.34;;;11.65;63.02
78354;BME280;67629;46.040;18.232;2024-03-22T01:52:57;100005.88;;;11.68;63.11
78354;BME280;67629;46.040;18.232;2024-03-22T01:53:28;100011.16;;;11.70;62.83
78354;BME280;67629;46.040;18.232;2024-03-22T01:54:01;100009.72;;;11.67;62.96
78354;BME280;67629;46.040;18.232;2024-03-22T01:54:32;100007.19;;;11.66;62.71
78354;BME280;67629;46.040;18.232;2024-03-22T01:55:03;100008.53;;;11.63;62.97
78354;BME280;67629;46.040;18.232;2024-03-22T01:55:36;100006.03;;;11.62;63.17
78354;BME280;67629;46.040;18.232;2024-03-22T01:56:07;100010.22;;;11.53;63.49
78354;BME280;67629;46.040;18.232;2024-03-22T01:56:38;100013.19;;;11.39;64.63
78354;BME280;67629;46.040;18.232;2024-03-22T01:57:09;100009.50;;;11.34;65.20
78354;BME280;67629;46.040;18.232;2024-03-22T01:57:40;100010.13;;;11.36;65.09
78354;BME280;67629;46.040;18.232;2024-03-22T01:58:12;100010.72;;;11.38;64.72
78354;BME280;67629;46.040;18.232;2024-03-22T01:58:42;100014.16;;;11.33;64.44
78354;BME280;67629;46.040;18.232;2024-03-22T01:59:14;100006.66;;;11.29;64.94
78354;BME280;67629;46.040;18.232;2024-03-22T01:59:49;100011.28;;;11.28;64.55
78354;BME280;67629;46.040;18.232;2024-03-22T02:00:21;100009.19;;;11.30;64.09
78354;BME280;67629;46.040;18.232;2024-03-22T02:00:51;100002.41;;;11.33;64.31
78354;BME280;67629;46.040;18.232;2024-03-22T02:01:23;100009.75;;;11.32;63.68
78354;BME280;67629;46.040;18.232;2024-03-22T02:01:53;100008.69;;;11.33;63.99
78354;BME280;67629;46.040;18.232;2024-03-22T02:02:24;100008.94;;;11.32;64.40
78354;BME280;67629;46.040;18.232;2024-03-22T02:02:54;100009.41;;;11.29;63.93
78354;BME280;67629;46.040;18.232;2024-03-22T02:03:25;100011.28;;;11.28;63.40
78354;BME280;67629;46.040;18.232;2024-03-22T02:03:56;100005.13;;;11.21;64.00
78354;BME280;67629;46.040;18.232;2024-03-22T02:04:41;100011.56;;;11.15;64.11
78354;BME280;67629;46.040;18.232;2024-03-22T02:05:27;100005.72;;;11.12;64.30
78354;BME280;67629;46.040;18.232;2024-03-22T02:06:13;100002.50;;;11.15;64.59
78354;BME280;67629;46.040;18.232;2024-03-22T02:07:00;100000.38;;;11.17;64.13
78354;BME280;67629;46.040;18.232;2024-03-22T02:07:45;100001.19;;;11.17;64.43
78354;BME280;67629;46.040;18.232;2024-03-22T02:08:31;100003.72;;;11.19;63.91
78354;BME280;67629;46.040;18.232;2024-03-22T02:09:17;100006.31;;;11.14;64.43
78354;BME280;67629;46.040;18.232;2024-03-22T02:10:03;100003.25;;;11.10;64.68
78354;BME280;67629;46.040;18.232;2024-03-22T02:10:49;99997.78;;;11.10;65.83
78354;BME280;67629;46.040;18.232;2024-03-22T02:11:36;99994.56;;;11.02;66.44
78354;BME280;67629;46.040;18.232;2024-03-22T02:12:23;99998.59;;;10.99;66.62
78354;BME280;67629;46.040;18.232;2024-03-22T02:13:09;99991.22;;;11.00;66.11
78354;BME280;67629;46.040;18.232;2024-03-22T02:13:54;99996.09;;;10.98;66.42
78354;BME280;67629;46.040;18.232;2024-03-22T02:14:25;99991.94;;;10.95;66.37
78354;BME280;67629;46.040;18.232;2024-03-22T02:15:11;99990.75;;;11.03;66.16
78354;BME280;67629;46.040;18.232;2024-03-22T02:15:42;99991.94;;;11.07;65.66
78354;BME280;67629;46.040;18.232;2024-03-22T02:16:30;99993.59;;;11.08;65.54
78354;BME280;67629;46.040;18.232;2024-03-22T02:17:16;99987.06;;;10.97;66.69
78354;BME280;67629;46.040;18.232;2024-03-22T02:18:02;100000.97;;;10.96;66.38
78354;BME280;67629;46.040;18.232;2024-03-22T02:18:48;100002.03;;;10.95;66.60
78354;BME280;67629;46.040;18.232;2024-03-22T02:19:34;99993.84;;;10.95;66.21
78354;BME280;67629;46.040;18.232;2024-03-22T02:20:20;99991.00;;;11.01;65.62
78354;BME280;67629;46.040;18.232;2024-03-22T02:21:06;99997.88;;;11.04;65.30
78354;BME280;67629;46.040;18.232;2024-03-22T02:21:52;99990.38;;;10.99;65.30
78354;BME280;67629;46.040;18.232;2024-03-22T02:22:23;99994.56;;;10.90;65.61
78354;BME280;67629;46.040;18.232;2024-03-22T02:22:54;99996.00;;;10.93;65.29
78354;BME280;67629;46.040;18.232;2024-03-22T02:23:35;99998.47;;;10.94;64.90
78354;BME280;67629;46.040;18.232;2024-03-22T02:24:05;99995.25;;;10.85;66.11
78354;BME280;67629;46.040;18.232;2024-03-22T02:24:36;99995.13;;;10.80;66.48
78354;BME280;67629;46.040;18.232;2024-03-22T02:25:07;99999.88;;;10.85;66.36
78354;BME280;67629;46.040;18.232;2024-03-22T02:25:38;99994.31;;;10.80;66.31
78354;BME280;67629;46.040;18.232;2024-03-22T02:26:09;99995.50;;;10.84;66.18
78354;BME280;67629;46.040;18.232;2024-03-22T02:26:39;99994.56;;;10.90;65.82
78354;BME280;67629;46.040;18.232;2024-03-22T02:27:10;100004.19;;;10.93;65.58
78354;BME280;67629;46.040;18.232;2024-03-22T02:27:41;99993.63;;;10.96;65.64
78354;BME280;67629;46.040;18.232;2024-03-22T02:28:11;99999.66;;;10.98;65.44
78354;BME280;67629;46.040;18.232;2024-03-22T02:28:42;100003.25;;;10.99;64.92
78354;BME280;67629;46.040;18.232;2024-03-22T02:29:13;99998.84;;;10.98;65.61
78354;BME280;67629;46.040;18.232;2024-03-22T02:29:58;100000.50;;;10.99;65.42
78354;BME280;67629;46.040;18.232;2024-03-22T02:30:29;99998.47;;;10.94;65.39
78354;BME280;67629;46.040;18.232;2024-03-22T02:31:00;100003.34;;;10.92;65.65
78354;BME280;67629;46.040;18.232;2024-03-22T02:31:31;100003.94;;;10.94;65.87
78354;BME280;67629;46.040;18.232;2024-03-22T02:32:02;99993.84;;;10.95;65.91
78354;BME280;67629;46.040;18.232;2024-03-22T02:32:34;100001.81;;;10.96;65.75
78354;BME280;67629;46.040;18.232;2024-03-22T02:33:04;99996.34;;;10.96;66.09
78354;BME280;67629;46.040;18.232;2024-03-22T02:34:05;100000.97;;;10.96;66.12
78354;BME280;67629;46.040;18.232;2024-03-22T02:34:36;99996.34;;;10.96;66.18
78354;BME280;67629;46.040;18.232;2024-03-22T02:35:07;99994.69;;;10.95;65.66
78354;BME280;67629;46.040;18.232;2024-03-22T02:35:38;99997.63;;;10.94;66.04
78354;BME280;67629;46.040;18.232;2024-03-22T02:36:09;99998.72;;;10.93;66.38
78354;BME280;67629;46.040;18.232;2024-03-22T02:36:40;100002.75;;;10.90;66.18
78354;BME280;67629;46.040;18.232;2024-03-22T02:37:10;99993.13;;;10.88;66.36
78354;BME280;67629;46.040;18.232;2024-03-22T02:37:41;99998.59;;;10.88;66.31
78354;BME280;67629;46.040;18.232;2024-03-22T02:38:11;99992.16;;;10.82;66.55
78354;BME280;67629;46.040;18.232;2024-03-22T02:38:42;99997.88;;;10.80;66.93
78354;BME280;67629;46.040;18.232;2024-03-22T02:39:12;99989.56;;;10.75;66.81
78354;BME280;67629;46.040;18.232;2024-03-22T02:39:43;99996.44;;;10.78;67.05
78354;BME280;67629;46.040;18.232;2024-03-22T02:40:14;99994.78;;;10.77;67.03
78354;BME280;67629;46.040;18.232;2024-03-22T02:40:45;99995.59;;;10.77;66.90
78354;BME280;67629;46.040;18.232;2024-03-22T02:41:17;99995.59;;;10.77;67.24
78354;BME280;67629;46.040;18.232;2024-03-22T02:41:48;100003.59;;;10.79;67.33
78354;BME280;67629;46.040;18.232;2024-03-22T02:42:18;100001.78;;;10.73;67.47
78354;BME280;67629;46.040;18.232;2024-03-22T02:42:49;100000.59;;;10.69;67.69
78354;BME280;67629;46.040;18.232;2024-03-22T02:43:50;100002.47;;;10.68;68.01
78354;BME280;67629;46.040;18.232;2024-03-22T02:44:21;100002.84;;;10.72;67.66
78354;BME280;67629;46.040;18.232;2024-03-22T02:44:52;100000.94;;;10.72;67.24
78354;BME280;67629;46.040;18.232;2024-03-22T02:45:23;100004.28;;;10.74;67.52
78354;BME280;67629;46.040;18.232;2024-03-22T02:45:53;100000.25;;;10.77;67.12
78354;BME280;67629;46.040;18.232;2024-03-22T02:46:24;100000.94;;;10.72;67.42
78354;BME280;67629;46.040;18.232;2024-03-22T02:46:55;99992.50;;;10.62;67.43
78354;BME280;67629;46.040;18.232;2024-03-22T02:47:25;99994.06;;;10.58;67.78
78354;BME280;67629;46.040;18.232;2024-03-22T02:47:56;99995.81;;;10.53;67.73
78354;BME280;67629;46.040;18.232;2024-03-22T02:48:27;100001.63;;;10.56;67.59
78354;BME280;67629;46.040;18.232;2024-03-22T02:48:59;99997.13;;;10.62;67.73
78354;BME280;67629;46.040;18.232;2024-03-22T02:49:29;100002.94;;;10.65;67.39
78354;BME280;67629;46.040;18.232;2024-03-22T02:50:00;99995.38;;;10.67;67.50
78354;BME280;67629;46.040;18.232;2024-03-22T02:50:34;99996.44;;;10.66;67.19
78354;BME280;67629;46.040;18.232;2024-03-22T02:51:05;99998.09;;;10.67;67.38
78354;BME280;67629;46.040;18.232;2024-03-22T02:51:35;99997.84;;;10.69;66.89
78354;BME280;67629;46.040;18.232;2024-03-22T02:52:06;100000.34;;;10.70;66.39
78354;BME280;67629;46.040;18.232;2024-03-22T02:52:37;99998.44;;;10.71;66.26
78354;BME280;67629;46.040;18.232;2024-03-22T02:53:08;99996.53;;;10.71;66.04
78354;BME280;67629;46.040;18.232;2024-03-22T02:53:38;99994.41;;;10.73;66.23
78354;BME280;67629;46.040;18.232;2024-03-22T02:54:09;99985.63;;;10.71;66.09
78354;BME280;67629;46.040;18.232;2024-03-22T02:54:39;99991.66;;;10.73;66.52
78354;BME280;67629;46.040;18.232;2024-03-22T02:55:11;99994.19;;;10.75;65.95
78354;BME280;67629;46.040;18.232;2024-03-22T02:55:41;99997.13;;;10.73;65.93
78354;BME280;67629;46.040;18.232;2024-03-22T02:56:12;99988.13;;;10.73;65.54
78354;BME280;67629;46.040;18.232;2024-03-22T02:56:43;99999.66;;;10.75;65.47
78354;BME280;67629;46.040;18.232;2024-03-22T02:57:13;99991.19;;;10.76;65.09
78354;BME280;67629;46.040;18.232;2024-03-22T02:57:44;99990.16;;;10.77;64.97
78354;BME280;67629;46.040;18.232;2024-03-22T02:58:16;99989.09;;;10.78;64.92
78354;BME280;67629;46.040;18.232;2024-03-22T02:58:49;99990.97;;;10.78;64.63
78354;BME280;67629;46.040;18.232;2024-03-22T02:59:20;99987.66;;;10.76;64.43
78354;BME280;67629;46.040;18.232;2024-03-22T02:59:50;99990.41;;;10.76;64.58
78354;BME280;67629;46.040;18.232;2024-03-22T03:00:21;99995.59;;;10.77;64.74
78354;BME280;67629;46.040;18.232;2024-03-22T03:01:37;99988.16;;;10.84;63.54
78354;BME280;67629;46.040;18.232;2024-03-22T03:02:07;99987.69;;;10.88;63.46
78354;BME280;67629;46.040;18.232;2024-03-22T03:02:38;99994.19;;;10.86;63.82
78354;BME280;67629;46.040;18.232;2024-03-22T03:03:09;99993.34;;;10.86;64.29
78354;BME280;67629;46.040;18.232;2024-03-22T03:03:39;99987.41;;;10.89;64.07
78354;BME280;67629;46.040;18.232;2024-03-22T03:04:16;99988.63;;;10.93;63.80
78354;BME280;67629;46.040;18.232;2024-03-22T03:04:47;99991.94;;;10.95;63.17
78354;BME280;67629;46.040;18.232;2024-03-22T03:05:17;99989.22;;;10.95;63.56
78354;BME280;67629;46.040;18.232;2024-03-22T03:05:48;99980.44;;;10.93;63.52
78354;BME280;67629;46.040;18.232;2024-03-22T03:06:18;99980.44;;;10.93;63.03
78354;BME280;67629;46.040;18.232;2024-03-22T03:06:50;99984.59;;;10.96;62.98
78354;BME280;67629;46.040;18.232;2024-03-22T03:07:20;99981.22;;;10.94;63.07